AFR1U KJFK-LFPG
Flight info
| Callsign | AFR1U |
|---|---|
| Flight time | N/A |
| Altitude | 35000 |
| Route | HAPIE DCT YAHOO DCT WHALE N167B PORTI/M084F360 DCT 47N050W 49N040W 51N030W 53N020W DCT MALOT DCT GISTI/N0481F370 DCT LESLU DCT ANNET UM25 INGOR/N0485F280 UM25 LUKIP |
| Aircraft | B77W/H-SDE1E2E3FGHIJ2J3J4J5M1RWXY/LB1D1 |
Departure
| Time | 2026-05-04 19:45 |
|---|---|
| Airport | John F. Kennedy International Airport (KJFK) |
Arrival
| Time | N/A |
|---|---|
| Airport | Charles de Gaulle International Airport (LFPG) |
| Time | Latitude | Longitude | Altitude | Speed | Heading |
|---|---|---|---|---|---|
| 2026-05-04 18:56 | 40.64167 | -73.79152 | 29 ft | 0 kts | 307° |
| 2026-05-04 19:10 | 40.64167 | -73.79151 | 29 ft | 0 kts | 307° |
| 2026-05-04 19:11 | 40.64167 | -73.79152 | 29 ft | 0 kts | 307° |
| 2026-05-04 19:28 | 40.64166 | -73.79151 | 29 ft | 1 kts | 307° |
| 2026-05-04 19:29 | 40.64154 | -73.79126 | 30 ft | 4 kts | 292° |
| 2026-05-04 19:29 | 40.64145 | -73.79096 | 28 ft | 3 kts | 297° |
| 2026-05-04 19:29 | 40.64139 | -73.79067 | 27 ft | 4 kts | 251° |
| 2026-05-04 19:29 | 40.64147 | -73.79046 | 27 ft | 1 kts | 230° |
| 2026-05-04 19:32 | 40.64142 | -73.79054 | 27 ft | 4 kts | 228° |
| 2026-05-04 19:32 | 40.64119 | -73.79082 | 29 ft | 5 kts | 221° |
| 2026-05-04 19:32 | 40.64093 | -73.79113 | 29 ft | 5 kts | 223° |
| 2026-05-04 19:32 | 40.64068 | -73.79144 | 29 ft | 5 kts | 223° |
| 2026-05-04 19:33 | 40.64044 | -73.79174 | 29 ft | 1 kts | 224° |
| 2026-05-04 19:33 | 40.64038 | -73.79183 | 29 ft | 5 kts | 224° |
| 2026-05-04 19:33 | 40.64000 | -73.79232 | 28 ft | 8 kts | 224° |
| 2026-05-04 19:34 | 40.63952 | -73.79228 | 28 ft | 7 kts | 136° |
| 2026-05-04 19:34 | 40.63917 | -73.79160 | 28 ft | 10 kts | 121° |
| 2026-05-04 19:34 | 40.63882 | -73.79084 | 27 ft | 10 kts | 121° |
| 2026-05-04 19:34 | 40.63847 | -73.79008 | 28 ft | 10 kts | 121° |
| 2026-05-04 19:35 | 40.63812 | -73.78933 | 29 ft | 10 kts | 121° |
| 2026-05-04 19:35 | 40.63772 | -73.78843 | 32 ft | 13 kts | 120° |
| 2026-05-04 19:35 | 40.63720 | -73.78726 | 34 ft | 16 kts | 121° |
| 2026-05-04 19:35 | 40.63663 | -73.78601 | 33 ft | 16 kts | 121° |
| 2026-05-04 19:36 | 40.63606 | -73.78476 | 34 ft | 16 kts | 120° |
| 2026-05-04 19:36 | 40.63549 | -73.78349 | 31 ft | 16 kts | 121° |
| 2026-05-04 19:36 | 40.63490 | -73.78220 | 29 ft | 16 kts | 121° |
| 2026-05-04 19:36 | 40.63432 | -73.78091 | 29 ft | 16 kts | 121° |
| 2026-05-04 19:37 | 40.63408 | -73.77962 | 27 ft | 14 kts | 77° |
| 2026-05-04 19:37 | 40.63468 | -73.77859 | 29 ft | 14 kts | 34° |
| 2026-05-04 19:37 | 40.63556 | -73.77788 | 30 ft | 16 kts | 31° |
| 2026-05-04 19:37 | 40.63653 | -73.77712 | 30 ft | 16 kts | 30° |
| 2026-05-04 19:38 | 40.63751 | -73.77636 | 28 ft | 16 kts | 30° |
| 2026-05-04 19:38 | 40.63849 | -73.77560 | 25 ft | 16 kts | 30° |
| 2026-05-04 19:38 | 40.63946 | -73.77483 | 27 ft | 16 kts | 31° |
| 2026-05-04 19:38 | 40.64044 | -73.77407 | 27 ft | 16 kts | 31° |
| 2026-05-04 19:39 | 40.64142 | -73.77330 | 29 ft | 16 kts | 31° |
| 2026-05-04 19:39 | 40.64240 | -73.77254 | 29 ft | 16 kts | 31° |
| 2026-05-04 19:39 | 40.64337 | -73.77178 | 27 ft | 16 kts | 31° |
| 2026-05-04 19:39 | 40.64434 | -73.77107 | 27 ft | 16 kts | 21° |
| 2026-05-04 19:40 | 40.64547 | -73.77090 | 26 ft | 16 kts | 1° |
| 2026-05-04 19:40 | 40.64659 | -73.77102 | 27 ft | 16 kts | 336° |
| 2026-05-04 19:40 | 40.64719 | -73.77177 | 27 ft | 9 kts | 309° |
| 2026-05-04 19:40 | 40.64756 | -73.77182 | 27 ft | 8 kts | 27° |
| 2026-05-04 19:41 | 40.64811 | -73.77101 | 28 ft | 13 kts | 52° |
| 2026-05-04 19:41 | 40.64874 | -73.76989 | 28 ft | 16 kts | 54° |
| 2026-05-04 19:41 | 40.64918 | -73.76888 | 28 ft | 11 kts | 79° |
| 2026-05-04 19:41 | 40.64892 | -73.76795 | 26 ft | 11 kts | 120° |
| 2026-05-04 19:42 | 40.64868 | -73.76718 | 26 ft | 7 kts | 86° |
| 2026-05-04 19:42 | 40.64904 | -73.76676 | 26 ft | 8 kts | 26° |
| 2026-05-04 19:42 | 40.64955 | -73.76638 | 30 ft | 8 kts | 30° |
| 2026-05-04 19:42 | 40.65006 | -73.76599 | 27 ft | 8 kts | 30° |
| 2026-05-04 19:43 | 40.65057 | -73.76560 | 29 ft | 8 kts | 30° |
| 2026-05-04 19:43 | 40.65098 | -73.76515 | 25 ft | 5 kts | 69° |
| 2026-05-04 19:43 | 40.65094 | -73.76478 | 27 ft | 2 kts | 107° |
| 2026-05-04 19:43 | 40.65085 | -73.76448 | 27 ft | 6 kts | 115° |
| 2026-05-04 19:44 | 40.65061 | -73.76387 | 27 ft | 9 kts | 117° |
| 2026-05-04 19:44 | 40.65022 | -73.76356 | 27 ft | 3 kts | 197° |
| 2026-05-04 19:44 | 40.65008 | -73.76367 | 27 ft | 0 kts | 210° |
| 2026-05-04 19:44 | 40.65000 | -73.76373 | 27 ft | 9 kts | 210° |
| 2026-05-04 19:45 | 40.64808 | -73.76522 | 26 ft | 66 kts | 210° |
| 2026-05-04 19:45 | 40.64208 | -73.76991 | 26 ft | 133 kts | 211° |
| 2026-05-04 19:45 | 40.63272 | -73.77723 | 154 ft | 169 kts | 208° |
| 2026-05-04 19:45 | 40.62237 | -73.78510 | 760 ft | 175 kts | 207° |
| 2026-05-04 19:46 | 40.61143 | -73.79334 | 1340 ft | 188 kts | 211° |
| 2026-05-04 19:46 | 40.59992 | -73.80172 | 2029 ft | 187 kts | 210° |
| 2026-05-04 19:46 | 40.58850 | -73.80978 | 2718 ft | 189 kts | 211° |
| 2026-05-04 19:46 | 40.57613 | -73.81868 | 2969 ft | 217 kts | 211° |
| 2026-05-04 19:47 | 40.56233 | -73.82864 | 3429 ft | 231 kts | 211° |
| 2026-05-04 19:47 | 40.54794 | -73.83904 | 3978 ft | 241 kts | 210° |
| 2026-05-04 19:47 | 40.53156 | -73.84496 | 4515 ft | 256 kts | 180° |
| 2026-05-04 19:47 | 40.51459 | -73.83673 | 5211 ft | 272 kts | 145° |
| 2026-05-04 19:48 | 40.50301 | -73.81627 | 5810 ft | 290 kts | 111° |
| 2026-05-04 19:48 | 40.49860 | -73.79018 | 6403 ft | 295 kts | 105° |
| 2026-05-04 19:48 | 40.49175 | -73.76494 | 6840 ft | 301 kts | 112° |
| 2026-05-04 19:48 | 40.48558 | -73.73862 | 7609 ft | 302 kts | 105° |
| 2026-05-04 19:49 | 40.48088 | -73.71165 | 8392 ft | 304 kts | 102° |
| 2026-05-04 19:49 | 40.47680 | -73.68431 | 9139 ft | 307 kts | 101° |
| 2026-05-04 19:49 | 40.47300 | -73.65651 | 9850 ft | 311 kts | 100° |
| 2026-05-04 19:49 | 40.46931 | -73.62826 | 10412 ft | 320 kts | 99° |
| 2026-05-04 19:50 | 40.46549 | -73.59838 | 10610 ft | 344 kts | 99° |
| 2026-05-04 19:50 | 40.46144 | -73.56627 | 10789 ft | 368 kts | 99° |
| 2026-05-04 19:50 | 40.45714 | -73.53207 | 11036 ft | 390 kts | 99° |
| 2026-05-04 19:50 | 40.45267 | -73.49641 | 11632 ft | 401 kts | 99° |
| 2026-05-04 19:51 | 40.44809 | -73.45998 | 12423 ft | 408 kts | 99° |
| 2026-05-04 19:51 | 40.44342 | -73.42293 | 13341 ft | 413 kts | 99° |
| 2026-05-04 19:51 | 40.43869 | -73.38551 | 14173 ft | 419 kts | 99° |
| 2026-05-04 19:51 | 40.43388 | -73.34756 | 14973 ft | 424 kts | 99° |
| 2026-05-04 19:52 | 40.42901 | -73.30928 | 15779 ft | 428 kts | 99° |
| 2026-05-04 19:52 | 40.42407 | -73.27047 | 16585 ft | 433 kts | 99° |
| 2026-05-04 19:52 | 40.41905 | -73.23122 | 17386 ft | 438 kts | 99° |
| 2026-05-04 19:52 | 40.41395 | -73.19145 | 18168 ft | 443 kts | 99° |
| 2026-05-04 19:53 | 40.40881 | -73.15146 | 18848 ft | 448 kts | 99° |
| 2026-05-04 19:53 | 40.40360 | -73.11094 | 19517 ft | 453 kts | 99° |
| 2026-05-04 19:53 | 40.39829 | -73.06990 | 20193 ft | 458 kts | 99° |
| 2026-05-04 19:53 | 40.39335 | -73.02839 | 20846 ft | 462 kts | 95° |
| 2026-05-04 19:54 | 40.39243 | -72.98624 | 21476 ft | 465 kts | 85° |
| 2026-05-04 19:54 | 40.39598 | -72.94411 | 22134 ft | 466 kts | 77° |
| 2026-05-04 19:54 | 40.40375 | -72.90276 | 22788 ft | 467 kts | 70° |
| 2026-05-04 19:54 | 40.41326 | -72.86183 | 23443 ft | 471 kts | 69° |
| 2026-05-04 19:55 | 40.42291 | -72.82069 | 23962 ft | 475 kts | 69° |
| 2026-05-04 19:55 | 40.43263 | -72.77903 | 24510 ft | 478 kts | 69° |
| 2026-05-04 19:55 | 40.44216 | -72.73767 | 25050 ft | 480 kts | 69° |
| 2026-05-04 19:55 | 40.45187 | -72.69501 | 25602 ft | 483 kts | 70° |
| 2026-05-04 19:56 | 40.46143 | -72.65257 | 26135 ft | 486 kts | 70° |
| 2026-05-04 19:56 | 40.47087 | -72.61042 | 26616 ft | 489 kts | 70° |
| 2026-05-04 19:56 | 40.48045 | -72.56745 | 27083 ft | 492 kts | 70° |
| 2026-05-04 19:56 | 40.49007 | -72.52415 | 27555 ft | 495 kts | 70° |
| 2026-05-04 19:57 | 40.49974 | -72.48056 | 28010 ft | 498 kts | 70° |
| 2026-05-04 19:57 | 40.50943 | -72.43676 | 28453 ft | 501 kts | 70° |
| 2026-05-04 19:57 | 40.51917 | -72.39272 | 28863 ft | 503 kts | 70° |
| 2026-05-04 19:57 | 40.52897 | -72.34832 | 29255 ft | 506 kts | 70° |
| 2026-05-04 19:58 | 40.53879 | -72.30374 | 29634 ft | 508 kts | 70° |
| 2026-05-04 19:58 | 40.54861 | -72.25904 | 29996 ft | 510 kts | 70° |
| 2026-05-04 19:58 | 40.55844 | -72.21420 | 30388 ft | 510 kts | 70° |
| 2026-05-04 19:58 | 40.56826 | -72.16933 | 30773 ft | 510 kts | 70° |
| 2026-05-04 19:59 | 40.57805 | -72.12448 | 31175 ft | 509 kts | 70° |
| 2026-05-04 19:59 | 40.58779 | -72.07973 | 31582 ft | 508 kts | 70° |
| 2026-05-04 19:59 | 40.59752 | -72.03503 | 31984 ft | 508 kts | 70° |
| 2026-05-04 19:59 | 40.60720 | -71.99044 | 32352 ft | 507 kts | 71° |
| 2026-05-04 20:00 | 40.61689 | -71.94574 | 32696 ft | 507 kts | 71° |
| 2026-05-04 20:00 | 40.62653 | -71.90113 | 33076 ft | 507 kts | 71° |
| 2026-05-04 20:00 | 40.63619 | -71.85645 | 33307 ft | 509 kts | 71° |
| 2026-05-04 20:00 | 40.64261 | -71.82664 | 33462 ft | 511 kts | 71° |
| 2026-05-04 20:01 | 40.65230 | -71.78160 | 33811 ft | 510 kts | 71° |
| 2026-05-04 20:01 | 40.66192 | -71.73678 | 34163 ft | 509 kts | 72° |
| 2026-05-04 20:01 | 40.67151 | -71.69194 | 34401 ft | 510 kts | 72° |
| 2026-05-04 20:01 | 40.68115 | -71.64688 | 34567 ft | 512 kts | 72° |
| 2026-05-04 20:02 | 40.69078 | -71.60170 | 34761 ft | 513 kts | 72° |
| 2026-05-04 20:02 | 40.70045 | -71.55630 | 34921 ft | 516 kts | 72° |
| 2026-05-04 20:02 | 40.71018 | -71.51050 | 34950 ft | 520 kts | 72° |
| 2026-05-04 20:03 | 40.72968 | -71.41836 | 34973 ft | 520 kts | 72° |
| 2026-05-04 20:03 | 40.74890 | -71.32706 | 34971 ft | 515 kts | 72° |
| 2026-05-04 20:04 | 40.76799 | -71.23605 | 34982 ft | 514 kts | 72° |
| 2026-05-04 20:04 | 40.78701 | -71.14504 | 34987 ft | 514 kts | 73° |
| 2026-05-04 20:05 | 40.80596 | -71.05398 | 34984 ft | 515 kts | 73° |
| 2026-05-04 20:05 | 40.82486 | -70.96273 | 35000 ft | 516 kts | 72° |
| 2026-05-04 20:06 | 40.84371 | -70.87134 | 34983 ft | 516 kts | 73° |
| 2026-05-04 20:06 | 40.86251 | -70.77979 | 34986 ft | 517 kts | 73° |
| 2026-05-04 20:07 | 40.88126 | -70.68804 | 34995 ft | 518 kts | 73° |
| 2026-05-04 20:07 | 40.90001 | -70.59592 | 34992 ft | 519 kts | 73° |
| 2026-05-04 20:08 | 40.91872 | -70.50355 | 34984 ft | 520 kts | 73° |
| 2026-05-04 20:08 | 40.93739 | -70.41096 | 34999 ft | 522 kts | 73° |
| 2026-05-04 20:09 | 40.95604 | -70.31807 | 34991 ft | 523 kts | 73° |
| 2026-05-04 20:09 | 40.97462 | -70.22506 | 34982 ft | 523 kts | 73° |
| 2026-05-04 20:10 | 40.99312 | -70.13206 | 34978 ft | 524 kts | 74° |
| 2026-05-04 20:10 | 41.01163 | -70.03861 | 34988 ft | 524 kts | 74° |
| 2026-05-04 20:11 | 41.03005 | -69.94514 | 34978 ft | 525 kts | 74° |
| 2026-05-04 20:11 | 41.04846 | -69.85132 | 34982 ft | 526 kts | 74° |
| 2026-05-04 20:12 | 41.06876 | -69.75821 | 34987 ft | 526 kts | 68° |
| 2026-05-04 20:12 | 41.09960 | -69.67136 | 34995 ft | 523 kts | 58° |
| 2026-05-04 20:13 | 41.13614 | -69.58775 | 34999 ft | 524 kts | 57° |
| 2026-05-04 20:13 | 41.17269 | -69.50380 | 34992 ft | 526 kts | 58° |
| 2026-05-04 20:14 | 41.20892 | -69.41929 | 34998 ft | 527 kts | 58° |
| 2026-05-04 20:14 | 41.24498 | -69.33442 | 35000 ft | 528 kts | 58° |
| 2026-05-04 20:15 | 41.28106 | -69.24920 | 34998 ft | 529 kts | 58° |
| 2026-05-04 20:15 | 41.31706 | -69.16399 | 35003 ft | 529 kts | 58° |
| 2026-05-04 20:16 | 41.35315 | -69.07839 | 34988 ft | 530 kts | 58° |
| 2026-05-04 20:16 | 41.38894 | -68.99326 | 34984 ft | 530 kts | 58° |
| 2026-05-04 20:17 | 41.42489 | -68.90750 | 34987 ft | 530 kts | 59° |
| 2026-05-04 20:17 | 41.46074 | -68.82173 | 34990 ft | 530 kts | 59° |
| 2026-05-04 20:18 | 41.49659 | -68.73571 | 34984 ft | 531 kts | 59° |
| 2026-05-04 20:18 | 41.53239 | -68.64956 | 34986 ft | 531 kts | 59° |
| 2026-05-04 20:19 | 41.56810 | -68.56336 | 34984 ft | 531 kts | 59° |
| 2026-05-04 20:19 | 41.60379 | -68.47698 | 34989 ft | 531 kts | 59° |
| 2026-05-04 20:20 | 41.63955 | -68.39018 | 34985 ft | 532 kts | 59° |
| 2026-05-04 20:20 | 41.67519 | -68.30340 | 34983 ft | 532 kts | 59° |
| 2026-05-04 20:21 | 41.71077 | -68.21652 | 34984 ft | 533 kts | 59° |
| 2026-05-04 20:21 | 41.76411 | -68.08578 | 34978 ft | 534 kts | 59° |
| 2026-05-04 20:22 | 41.79965 | -67.99836 | 34965 ft | 534 kts | 59° |
| 2026-05-04 20:22 | 41.83514 | -67.91079 | 34984 ft | 535 kts | 59° |
| 2026-05-04 20:23 | 41.87037 | -67.82360 | 34978 ft | 535 kts | 59° |
| 2026-05-04 20:23 | 41.90583 | -67.73558 | 34968 ft | 535 kts | 60° |
| 2026-05-04 20:24 | 41.94117 | -67.64759 | 34959 ft | 535 kts | 60° |
| 2026-05-04 20:24 | 41.97642 | -67.55957 | 34985 ft | 534 kts | 60° |
| 2026-05-04 20:25 | 42.01156 | -67.47156 | 34957 ft | 535 kts | 60° |
| 2026-05-04 20:25 | 42.04673 | -67.38319 | 34963 ft | 535 kts | 60° |
| 2026-05-04 20:26 | 42.08177 | -67.29490 | 34953 ft | 535 kts | 60° |
| 2026-05-04 20:26 | 42.11678 | -67.20639 | 34972 ft | 536 kts | 60° |
| 2026-05-04 20:27 | 42.15184 | -67.11751 | 34954 ft | 537 kts | 60° |
| 2026-05-04 20:27 | 42.18684 | -67.02849 | 34949 ft | 538 kts | 60° |
| 2026-05-04 20:28 | 42.22151 | -66.93898 | 34951 ft | 539 kts | 61° |
| 2026-05-04 20:28 | 42.25511 | -66.84932 | 34959 ft | 540 kts | 62° |
| 2026-05-04 20:29 | 42.28880 | -66.75873 | 34950 ft | 541 kts | 62° |
| 2026-05-04 20:29 | 42.32263 | -66.66791 | 34948 ft | 541 kts | 62° |
| 2026-05-04 20:30 | 42.35650 | -66.57697 | 34944 ft | 541 kts | 62° |
| 2026-05-04 20:30 | 42.39031 | -66.48596 | 34930 ft | 542 kts | 62° |
| 2026-05-04 20:31 | 42.42407 | -66.39479 | 34947 ft | 543 kts | 62° |
| 2026-05-04 20:31 | 42.45782 | -66.30328 | 34946 ft | 543 kts | 62° |
| 2026-05-04 20:32 | 42.49154 | -66.21159 | 34950 ft | 544 kts | 62° |
| 2026-05-04 20:32 | 42.52525 | -66.11961 | 34942 ft | 545 kts | 62° |
| 2026-05-04 20:33 | 42.55890 | -66.02751 | 34941 ft | 545 kts | 62° |
| 2026-05-04 20:33 | 42.59251 | -65.93519 | 34950 ft | 545 kts | 62° |
| 2026-05-04 20:34 | 42.62605 | -65.84277 | 34938 ft | 546 kts | 63° |
| 2026-05-04 20:34 | 42.65952 | -65.75023 | 34940 ft | 546 kts | 63° |
| 2026-05-04 20:35 | 42.69294 | -65.65755 | 34921 ft | 545 kts | 63° |
| 2026-05-04 20:35 | 42.72627 | -65.56481 | 34927 ft | 546 kts | 63° |
| 2026-05-04 20:36 | 42.75951 | -65.47198 | 34925 ft | 546 kts | 63° |
| 2026-05-04 20:36 | 42.79278 | -65.37878 | 34928 ft | 547 kts | 63° |
| 2026-05-04 20:37 | 42.82596 | -65.28551 | 34931 ft | 547 kts | 63° |
| 2026-05-04 20:37 | 42.85908 | -65.19210 | 34921 ft | 548 kts | 63° |
| 2026-05-04 20:38 | 42.89218 | -65.09844 | 34923 ft | 548 kts | 63° |
| 2026-05-04 20:38 | 42.92514 | -65.00485 | 34922 ft | 548 kts | 63° |
| 2026-05-04 20:39 | 42.95808 | -64.91102 | 34935 ft | 549 kts | 63° |
| 2026-05-04 20:39 | 42.99099 | -64.81694 | 34923 ft | 549 kts | 64° |
| 2026-05-04 20:40 | 43.02361 | -64.72334 | 34919 ft | 549 kts | 64° |
| 2026-05-04 20:40 | 43.05639 | -64.62901 | 34912 ft | 549 kts | 64° |
| 2026-05-04 20:41 | 43.08907 | -64.53461 | 34920 ft | 549 kts | 64° |
| 2026-05-04 20:41 | 43.12169 | -64.44008 | 34900 ft | 549 kts | 64° |
| 2026-05-04 20:42 | 43.15423 | -64.34543 | 34906 ft | 550 kts | 64° |
| 2026-05-04 20:42 | 43.18678 | -64.25045 | 34930 ft | 551 kts | 64° |
| 2026-05-04 20:43 | 43.21929 | -64.15525 | 34910 ft | 552 kts | 64° |
| 2026-05-04 20:43 | 43.24632 | -64.07583 | 34909 ft | 552 kts | 64° |
| 2026-05-04 20:44 | 43.28398 | -63.96480 | 34904 ft | 552 kts | 64° |
| 2026-05-04 20:44 | 43.31631 | -63.86912 | 34895 ft | 553 kts | 64° |
| 2026-05-04 20:45 | 43.34338 | -63.78873 | 34901 ft | 553 kts | 65° |
| 2026-05-04 20:45 | 43.37562 | -63.69269 | 34900 ft | 554 kts | 65° |
| 2026-05-04 20:46 | 43.40782 | -63.59644 | 34902 ft | 554 kts | 65° |
| 2026-05-04 20:46 | 43.43998 | -63.49997 | 34904 ft | 555 kts | 65° |
| 2026-05-04 20:47 | 43.47184 | -63.40403 | 34899 ft | 555 kts | 65° |
| 2026-05-04 20:47 | 43.50381 | -63.30741 | 34895 ft | 554 kts | 65° |
| 2026-05-04 20:48 | 43.53569 | -63.21075 | 34886 ft | 554 kts | 65° |
| 2026-05-04 20:48 | 43.56746 | -63.11405 | 34890 ft | 553 kts | 65° |
| 2026-05-04 20:49 | 43.59911 | -63.01734 | 34890 ft | 553 kts | 65° |
| 2026-05-04 20:49 | 43.63069 | -62.92052 | 34895 ft | 553 kts | 65° |
| 2026-05-04 20:50 | 43.66218 | -62.82364 | 34895 ft | 553 kts | 65° |
| 2026-05-04 20:50 | 43.69360 | -62.72659 | 34884 ft | 553 kts | 65° |
| 2026-05-04 20:51 | 43.72494 | -62.62946 | 34878 ft | 553 kts | 65° |
| 2026-05-04 20:51 | 43.75600 | -62.53283 | 34892 ft | 553 kts | 65° |
| 2026-05-04 20:52 | 43.78721 | -62.43536 | 34881 ft | 554 kts | 66° |
| 2026-05-04 20:52 | 43.81841 | -62.33761 | 34879 ft | 555 kts | 66° |
| 2026-05-04 20:53 | 43.84947 | -62.23987 | 34873 ft | 555 kts | 66° |
| 2026-05-04 20:53 | 43.88050 | -62.14191 | 34890 ft | 555 kts | 66° |
| 2026-05-04 20:54 | 43.91143 | -62.04388 | 34851 ft | 555 kts | 66° |
| 2026-05-04 20:54 | 43.94227 | -61.94578 | 34877 ft | 555 kts | 66° |
| 2026-05-04 20:55 | 43.97303 | -61.84754 | 34869 ft | 555 kts | 66° |
| 2026-05-04 20:55 | 44.00374 | -61.74909 | 34875 ft | 555 kts | 66° |
| 2026-05-04 20:56 | 44.03438 | -61.65053 | 34867 ft | 555 kts | 66° |
| 2026-05-04 20:56 | 44.06492 | -61.55190 | 34861 ft | 555 kts | 66° |
| 2026-05-04 20:57 | 44.09537 | -61.45316 | 34877 ft | 555 kts | 66° |
| 2026-05-04 20:57 | 44.12573 | -61.35433 | 34848 ft | 555 kts | 66° |
| 2026-05-04 20:58 | 44.15598 | -61.25553 | 34854 ft | 555 kts | 66° |
| 2026-05-04 20:58 | 44.18617 | -61.15649 | 34852 ft | 555 kts | 66° |
| 2026-05-04 20:59 | 44.21631 | -61.05726 | 34871 ft | 556 kts | 66° |
| 2026-05-04 20:59 | 44.24616 | -60.95863 | 34849 ft | 556 kts | 67° |
| 2026-05-04 21:00 | 44.27614 | -60.85914 | 34842 ft | 555 kts | 67° |
| 2026-05-04 21:00 | 44.30598 | -60.75973 | 34831 ft | 555 kts | 67° |
| 2026-05-04 21:01 | 44.33570 | -60.66034 | 34852 ft | 555 kts | 67° |
| 2026-05-04 21:01 | 44.36536 | -60.56077 | 34840 ft | 555 kts | 67° |
| 2026-05-04 21:02 | 44.39494 | -60.46108 | 34840 ft | 555 kts | 67° |
| 2026-05-04 21:02 | 44.42446 | -60.36121 | 34839 ft | 555 kts | 67° |
| 2026-05-04 21:03 | 44.45385 | -60.26135 | 34841 ft | 555 kts | 67° |
| 2026-05-04 21:03 | 44.48317 | -60.16137 | 34831 ft | 555 kts | 67° |
| 2026-05-04 21:04 | 44.51235 | -60.06143 | 34826 ft | 554 kts | 68° |
| 2026-05-04 21:04 | 44.54146 | -59.96137 | 34830 ft | 554 kts | 68° |
| 2026-05-04 21:05 | 44.57046 | -59.86125 | 34828 ft | 555 kts | 68° |
| 2026-05-04 21:05 | 44.59941 | -59.76094 | 34818 ft | 555 kts | 68° |
| 2026-05-04 21:06 | 44.62807 | -59.66120 | 34810 ft | 554 kts | 68° |
| 2026-05-04 21:06 | 44.65684 | -59.56066 | 34816 ft | 554 kts | 68° |
| 2026-05-04 21:07 | 44.68553 | -59.46005 | 34794 ft | 554 kts | 68° |
| 2026-05-04 21:07 | 44.71409 | -59.35942 | 34813 ft | 554 kts | 68° |
| 2026-05-04 21:08 | 44.74260 | -59.25860 | 34817 ft | 555 kts | 68° |
| 2026-05-04 21:08 | 44.77104 | -59.15762 | 34815 ft | 555 kts | 68° |
| 2026-05-04 21:09 | 44.79940 | -59.05646 | 34810 ft | 555 kts | 68° |
| 2026-05-04 21:09 | 44.82764 | -58.95536 | 34810 ft | 554 kts | 68° |
| 2026-05-04 21:10 | 44.85557 | -58.85494 | 34804 ft | 554 kts | 68° |
| 2026-05-04 21:10 | 44.88360 | -58.75372 | 34801 ft | 554 kts | 68° |
| 2026-05-04 21:11 | 44.91154 | -58.65244 | 34809 ft | 554 kts | 69° |
| 2026-05-04 21:11 | 44.93939 | -58.55104 | 34802 ft | 554 kts | 69° |
| 2026-05-04 21:12 | 44.96716 | -58.44950 | 34817 ft | 555 kts | 69° |
| 2026-05-04 21:12 | 44.99487 | -58.34780 | 34804 ft | 555 kts | 69° |
| 2026-05-04 21:13 | 45.02253 | -58.24581 | 34802 ft | 556 kts | 69° |
| 2026-05-04 21:13 | 45.05010 | -58.14372 | 34779 ft | 556 kts | 69° |
| 2026-05-04 21:14 | 45.07765 | -58.04126 | 34809 ft | 557 kts | 69° |
| 2026-05-04 21:14 | 45.10512 | -57.93865 | 34799 ft | 558 kts | 69° |
| 2026-05-04 21:15 | 45.13255 | -57.83579 | 34792 ft | 558 kts | 69° |
| 2026-05-04 21:15 | 45.15987 | -57.73286 | 34800 ft | 558 kts | 69° |
| 2026-05-04 21:16 | 45.18712 | -57.62977 | 34803 ft | 558 kts | 69° |
| 2026-05-04 21:16 | 45.21423 | -57.52672 | 34790 ft | 558 kts | 69° |
| 2026-05-04 21:17 | 45.24124 | -57.42363 | 34771 ft | 557 kts | 70° |
| 2026-05-04 21:17 | 45.26811 | -57.32062 | 34790 ft | 556 kts | 70° |
| 2026-05-04 21:18 | 45.29490 | -57.21749 | 34796 ft | 557 kts | 70° |
| 2026-05-04 21:18 | 45.32164 | -57.11407 | 34785 ft | 557 kts | 70° |
| 2026-05-04 21:19 | 45.34824 | -57.01072 | 34781 ft | 556 kts | 70° |
| 2026-05-04 21:19 | 45.37474 | -56.90730 | 34789 ft | 556 kts | 70° |
| 2026-05-04 21:20 | 45.40114 | -56.80383 | 34789 ft | 556 kts | 70° |
| 2026-05-04 21:20 | 45.42743 | -56.70035 | 34774 ft | 556 kts | 70° |
| 2026-05-04 21:21 | 45.45342 | -56.59753 | 34783 ft | 555 kts | 70° |
| 2026-05-04 21:21 | 45.47951 | -56.49392 | 34794 ft | 555 kts | 70° |
| 2026-05-04 21:22 | 45.50547 | -56.39030 | 34777 ft | 555 kts | 70° |
| 2026-05-04 21:22 | 45.53131 | -56.28670 | 34779 ft | 554 kts | 71° |
| 2026-05-04 21:23 | 45.55705 | -56.18307 | 34775 ft | 554 kts | 71° |
| 2026-05-04 21:23 | 45.58268 | -56.07939 | 34759 ft | 554 kts | 71° |
| 2026-05-04 21:24 | 45.60819 | -55.97572 | 34773 ft | 553 kts | 71° |
| 2026-05-04 21:24 | 45.63360 | -55.87195 | 34774 ft | 554 kts | 71° |
| 2026-05-04 21:25 | 45.65896 | -55.76796 | 34775 ft | 554 kts | 71° |
| 2026-05-04 21:25 | 45.68421 | -55.66390 | 34776 ft | 554 kts | 71° |
| 2026-05-04 21:26 | 45.70940 | -55.55962 | 34773 ft | 555 kts | 71° |
| 2026-05-04 21:26 | 45.73453 | -55.45509 | 34778 ft | 555 kts | 71° |
| 2026-05-04 21:27 | 45.75533 | -55.36821 | 34751 ft | 555 kts | 71° |
| 2026-05-04 21:27 | 45.78027 | -55.26357 | 34778 ft | 556 kts | 72° |
| 2026-05-04 21:28 | 45.80517 | -55.15860 | 34781 ft | 556 kts | 72° |
| 2026-05-04 21:28 | 45.82999 | -55.05347 | 34779 ft | 557 kts | 72° |
| 2026-05-04 21:29 | 45.85474 | -54.94815 | 34781 ft | 557 kts | 72° |
| 2026-05-04 21:29 | 45.87938 | -54.84277 | 34793 ft | 557 kts | 72° |
| 2026-05-04 21:30 | 45.90391 | -54.73737 | 34774 ft | 556 kts | 72° |
| 2026-05-04 21:30 | 45.92829 | -54.63213 | 34769 ft | 555 kts | 72° |
| 2026-05-04 21:31 | 45.96467 | -54.47408 | 34787 ft | 555 kts | 72° |
| 2026-05-04 21:32 | 45.98866 | -54.36920 | 34801 ft | 555 kts | 72° |
| 2026-05-04 21:32 | 46.01273 | -54.26350 | 34786 ft | 555 kts | 72° |
| 2026-05-04 21:33 | 46.03665 | -54.15791 | 34782 ft | 555 kts | 73° |
| 2026-05-04 21:33 | 46.06048 | -54.05224 | 34783 ft | 555 kts | 73° |
| 2026-05-04 21:34 | 46.08420 | -53.94652 | 34745 ft | 554 kts | 73° |
| 2026-05-04 21:34 | 46.10779 | -53.84080 | 34771 ft | 555 kts | 73° |
| 2026-05-04 21:34 | 46.11961 | -53.78764 | 34915 ft | 558 kts | 73° |
| 2026-05-04 21:35 | 46.13143 | -53.73436 | 35205 ft | 557 kts | 73° |
| 2026-05-04 21:35 | 46.14318 | -53.68126 | 35540 ft | 555 kts | 73° |
| 2026-05-04 21:35 | 46.15486 | -53.62836 | 35876 ft | 553 kts | 73° |
| 2026-05-04 21:35 | 46.16647 | -53.57566 | 36219 ft | 550 kts | 74° |
| 2026-05-04 21:36 | 46.17802 | -53.52309 | 36546 ft | 549 kts | 74° |
| 2026-05-04 21:36 | 46.18952 | -53.47056 | 36710 ft | 550 kts | 74° |
| 2026-05-04 21:36 | 46.20104 | -53.41781 | 36749 ft | 552 kts | 74° |
| 2026-05-04 21:37 | 46.22408 | -53.31194 | 36765 ft | 551 kts | 74° |
| 2026-05-04 21:37 | 46.24676 | -53.20728 | 36731 ft | 548 kts | 74° |
| 2026-05-04 21:38 | 46.26936 | -53.10239 | 36764 ft | 546 kts | 74° |
| 2026-05-04 21:38 | 46.29181 | -52.99767 | 36763 ft | 545 kts | 75° |
| 2026-05-04 21:39 | 46.31418 | -52.89278 | 36774 ft | 545 kts | 75° |
| 2026-05-04 21:39 | 46.33644 | -52.78785 | 36772 ft | 546 kts | 75° |
| 2026-05-04 21:40 | 46.35867 | -52.68256 | 36770 ft | 547 kts | 75° |
| 2026-05-04 21:40 | 46.38086 | -52.57694 | 36775 ft | 548 kts | 75° |
| 2026-05-04 21:41 | 46.40294 | -52.47125 | 36744 ft | 549 kts | 75° |
| 2026-05-04 21:41 | 46.42493 | -52.36546 | 36766 ft | 549 kts | 75° |
| 2026-05-04 21:42 | 46.44686 | -52.25941 | 36799 ft | 549 kts | 76° |
| 2026-05-04 21:42 | 46.46872 | -52.15312 | 36798 ft | 549 kts | 76° |
| 2026-05-04 21:43 | 46.49046 | -52.04690 | 36792 ft | 549 kts | 76° |
| 2026-05-04 21:43 | 46.51412 | -51.94233 | 36806 ft | 549 kts | 71° |
| 2026-05-04 21:44 | 46.54128 | -51.83872 | 36808 ft | 549 kts | 71° |
| 2026-05-04 21:44 | 46.56866 | -51.73509 | 36805 ft | 549 kts | 71° |
| 2026-05-04 21:45 | 46.59559 | -51.63135 | 36800 ft | 548 kts | 71° |
| 2026-05-04 21:45 | 46.62219 | -51.52752 | 36810 ft | 547 kts | 71° |
| 2026-05-04 21:46 | 46.64865 | -51.42366 | 36814 ft | 547 kts | 72° |
| 2026-05-04 21:46 | 46.67506 | -51.31965 | 36830 ft | 548 kts | 72° |
| 2026-05-04 21:47 | 46.70142 | -51.21542 | 36825 ft | 548 kts | 72° |
| 2026-05-04 21:47 | 46.72771 | -51.11102 | 36822 ft | 549 kts | 72° |
| 2026-05-04 21:48 | 46.75390 | -51.00655 | 36819 ft | 549 kts | 72° |
| 2026-05-04 21:48 | 46.77999 | -50.90196 | 36832 ft | 549 kts | 72° |
| 2026-05-04 21:49 | 46.80593 | -50.79747 | 36802 ft | 548 kts | 72° |
| 2026-05-04 21:49 | 46.83181 | -50.69277 | 36832 ft | 548 kts | 72° |
| 2026-05-04 21:50 | 46.85758 | -50.58803 | 36837 ft | 548 kts | 72° |
| 2026-05-04 21:50 | 46.88321 | -50.48334 | 36837 ft | 547 kts | 73° |
| 2026-05-04 21:51 | 46.90878 | -50.37844 | 36838 ft | 547 kts | 73° |
| 2026-05-04 21:51 | 46.93424 | -50.27346 | 36849 ft | 547 kts | 73° |
| 2026-05-04 21:52 | 46.95940 | -50.16927 | 36842 ft | 546 kts | 73° |
| 2026-05-04 21:52 | 46.98476 | -50.06371 | 36846 ft | 546 kts | 73° |
| 2026-05-04 21:53 | 47.00987 | -49.95948 | 36842 ft | 546 kts | 72° |
| 2026-05-04 21:53 | 47.03603 | -49.85520 | 36832 ft | 545 kts | 72° |
| 2026-05-04 21:54 | 47.06241 | -49.75108 | 36851 ft | 544 kts | 72° |
| 2026-05-04 21:54 | 47.08854 | -49.64688 | 36858 ft | 544 kts | 72° |
| 2026-05-04 21:55 | 47.11445 | -49.54249 | 36853 ft | 545 kts | 73° |
| 2026-05-04 21:55 | 47.14029 | -49.43779 | 36860 ft | 544 kts | 73° |
| 2026-05-04 21:56 | 47.16600 | -49.33312 | 36856 ft | 544 kts | 73° |
| 2026-05-04 21:56 | 47.19161 | -49.22840 | 36854 ft | 544 kts | 73° |
| 2026-05-04 21:57 | 47.21705 | -49.12393 | 36854 ft | 543 kts | 73° |
| 2026-05-04 21:57 | 47.24243 | -49.01922 | 36864 ft | 542 kts | 73° |
| 2026-05-04 21:58 | 47.26767 | -48.91459 | 36862 ft | 542 kts | 73° |
| 2026-05-04 21:58 | 47.29278 | -48.80999 | 36865 ft | 541 kts | 73° |
| 2026-05-04 21:59 | 47.31777 | -48.70539 | 36870 ft | 541 kts | 74° |
| 2026-05-04 21:59 | 47.34263 | -48.60086 | 36880 ft | 540 kts | 74° |
| 2026-05-04 22:00 | 47.36736 | -48.49636 | 36876 ft | 539 kts | 74° |
| 2026-05-04 22:00 | 47.39196 | -48.39191 | 36894 ft | 539 kts | 74° |
| 2026-05-04 22:01 | 47.41648 | -48.28731 | 36883 ft | 539 kts | 75° |
| 2026-05-04 22:01 | 47.44071 | -48.18343 | 36887 ft | 539 kts | 75° |
| 2026-05-04 22:02 | 47.46502 | -48.07873 | 36889 ft | 538 kts | 75° |
| 2026-05-04 22:02 | 47.48920 | -47.97406 | 36879 ft | 538 kts | 75° |
| 2026-05-04 22:03 | 47.51330 | -47.86925 | 36900 ft | 538 kts | 75° |
| 2026-05-04 22:03 | 47.53732 | -47.76423 | 36910 ft | 539 kts | 75° |
| 2026-05-04 22:04 | 47.56127 | -47.65903 | 36903 ft | 539 kts | 75° |
| 2026-05-04 22:04 | 47.58514 | -47.55367 | 36907 ft | 540 kts | 75° |
| 2026-05-04 22:05 | 47.60892 | -47.44816 | 36904 ft | 540 kts | 75° |
| 2026-05-04 22:05 | 47.63261 | -47.34257 | 36912 ft | 540 kts | 76° |
| 2026-05-04 22:06 | 47.65605 | -47.23754 | 36922 ft | 539 kts | 76° |
| 2026-05-04 22:06 | 47.67953 | -47.13182 | 36924 ft | 539 kts | 76° |
| 2026-05-04 22:07 | 47.70287 | -47.02618 | 36873 ft | 538 kts | 76° |
| 2026-05-04 22:07 | 47.72607 | -46.92068 | 36920 ft | 537 kts | 76° |
| 2026-05-04 22:08 | 47.74915 | -46.81513 | 36931 ft | 537 kts | 76° |
| 2026-05-04 22:08 | 47.77215 | -46.70942 | 36935 ft | 538 kts | 76° |
| 2026-05-04 22:09 | 47.79507 | -46.60358 | 36926 ft | 537 kts | 77° |
| 2026-05-04 22:09 | 47.81784 | -46.49792 | 36927 ft | 537 kts | 77° |
| 2026-05-04 22:10 | 47.84051 | -46.39212 | 36933 ft | 536 kts | 77° |
| 2026-05-04 22:10 | 47.86304 | -46.28641 | 36944 ft | 535 kts | 77° |
| 2026-05-04 22:11 | 47.88542 | -46.18093 | 36939 ft | 533 kts | 77° |
| 2026-05-04 22:11 | 47.90765 | -46.07558 | 36939 ft | 532 kts | 77° |
| 2026-05-04 22:12 | 47.92600 | -45.98820 | 36937 ft | 531 kts | 78° |
| 2026-05-04 22:12 | 47.95164 | -45.86541 | 36955 ft | 531 kts | 78° |
| 2026-05-04 22:13 | 47.96982 | -45.77787 | 36944 ft | 531 kts | 78° |
| 2026-05-04 22:13 | 47.99513 | -45.65548 | 36956 ft | 531 kts | 78° |
| 2026-05-04 22:14 | 48.01326 | -45.56732 | 36955 ft | 530 kts | 78° |
| 2026-05-04 22:14 | 48.03485 | -45.46182 | 36955 ft | 530 kts | 78° |
| 2026-05-04 22:15 | 48.05632 | -45.35634 | 36939 ft | 528 kts | 79° |
| 2026-05-04 22:15 | 48.07742 | -45.25220 | 36955 ft | 526 kts | 79° |
| 2026-05-04 22:16 | 48.09848 | -45.14763 | 36952 ft | 524 kts | 79° |
| 2026-05-04 22:16 | 48.11949 | -45.04273 | 36923 ft | 522 kts | 79° |
| 2026-05-04 22:17 | 48.14005 | -44.93951 | 36931 ft | 520 kts | 79° |
| 2026-05-04 22:17 | 48.16062 | -44.83575 | 36962 ft | 519 kts | 79° |
| 2026-05-04 22:18 | 48.18104 | -44.73215 | 36967 ft | 519 kts | 79° |
| 2026-05-04 22:18 | 48.20141 | -44.62824 | 36968 ft | 519 kts | 79° |
| 2026-05-04 22:19 | 48.22165 | -44.52446 | 36941 ft | 519 kts | 79° |
| 2026-05-04 22:19 | 48.24181 | -44.42055 | 36960 ft | 519 kts | 79° |
| 2026-05-04 22:20 | 48.26188 | -44.31649 | 36979 ft | 518 kts | 80° |